SBPP/PMG METAR and TAF weather

Enter ICAO airport designator
Station Type Date Time Source
SBPP METAR 2019/10/23 21:00 UTC NOAA

SBPP 232100Z 19005KT CAVOK 30/10 Q1013


Station Type Date Time Source
SBPP Decoded METAR 2019/10/23 21:00 UTC NOAA

Ponta Pora Intl , Brazil (SBPP) 22-33S 055-42W
Oct 23, 2019 - 05:00 PM EDT / 2019.10.23 2100 UTC
Wind: from the S (190 degrees) at 6 MPH (5 KT):0
Visibility: greater than 7 mile(s):0
Temperature: 86 F (30 C)
Dew Point: 50 F (10 C)
Relative Humidity: 28%
Pressure (altimeter): 29.91 in. Hg (1013 hPa)
ob: SBPP 232100Z 19005KT CAVOK 30/10 Q1013
cycle: 21

Station Type Date Time Source
SBPP TAF 2019/10/23 18:30 UTC NOAA

TAF SBPP 231530Z 2318/2418 18007KT CAVOK TN18/2408Z TX32/2417Z
RMK PCX

Example: see airport list